createdAt,value
2015-11-06T00:00:07.198Z,741.94
2015-11-06T00:00:20.432Z,741.86
2015-11-06T00:00:33.651Z,741.87
2015-11-06T00:00:46.869Z,741.89
2015-11-06T00:01:00.088Z,741.87
2015-11-06T00:01:13.325Z,741.84
2015-11-06T00:01:26.559Z,741.88
2015-11-06T00:01:39.809Z,741.86
2015-11-06T00:01:53.075Z,741.82
2015-11-06T00:02:06.313Z,741.87
2015-11-06T00:02:19.516Z,741.81
2015-11-06T00:02:32.735Z,741.85
2015-11-06T00:02:45.954Z,741.85
2015-11-06T00:02:59.172Z,741.81
2015-11-06T00:03:12.393Z,741.88
2015-11-06T00:03:25.627Z,741.95
2015-11-06T00:03:38.862Z,741.91
2015-11-06T00:03:52.112Z,741.91
2015-11-06T00:04:05.393Z,741.9
2015-11-06T00:04:18.459Z,741.87
2015-11-06T00:04:31.662Z,741.79
2015-11-06T00:04:44.896Z,741.77
2015-11-06T00:04:58.115Z,741.81
2015-11-06T00:05:11.321Z,741.77
2015-11-06T00:05:24.540Z,741.82
2015-11-06T00:05:37.790Z,741.9
2015-11-06T00:05:51.008Z,741.92
2015-11-06T00:06:04.258Z,741.96
2015-11-06T00:06:17.526Z,741.83
2015-11-06T00:06:30.792Z,741.84
2015-11-06T00:06:44.042Z,741.7
2015-11-06T00:06:57.245Z,741.83
2015-11-06T00:07:10.467Z,741.86
2015-11-06T00:07:23.685Z,741.84
2015-11-06T00:07:36.920Z,741.88
2015-11-06T00:07:50.138Z,741.84
2015-11-06T00:08:03.373Z,741.83
2015-11-06T00:08:16.610Z,741.86
2015-11-06T00:08:29.829Z,741.88
2015-11-06T00:08:43.095Z,741.87
2015-11-06T00:08:56.188Z,741.88
2015-11-06T00:09:09.423Z,741.8
2015-11-06T00:09:22.643Z,741.92
2015-11-06T00:09:35.878Z,741.81
2015-11-06T00:09:49.112Z,741.82
2015-11-06T00:10:02.362Z,741.83
2015-11-06T00:10:15.444Z,741.87
2015-11-06T00:10:28.663Z,741.89
2015-11-06T00:10:41.897Z,741.96
2015-11-06T00:10:55.116Z,741.95
2015-11-06T00:11:08.335Z,741.77
2015-11-06T00:11:21.556Z,741.86
2015-11-06T00:11:34.774Z,741.82
2015-11-06T00:11:48.009Z,741.92
2015-11-06T00:12:01.259Z,741.8
2015-11-06T00:12:14.511Z,741.8
2015-11-06T00:12:27.761Z,741.83
2015-11-06T00:12:41.011Z,741.91
2015-11-06T00:12:54.214Z,741.87
2015-11-06T00:13:07.433Z,741.88
2015-11-06T00:13:20.655Z,741.82
2015-11-06T00:13:33.874Z,741.86
2015-11-06T00:13:47.077Z,741.84
2015-11-06T00:14:00.312Z,741.97
2015-11-06T00:14:13.546Z,741.84
2015-11-06T00:14:26.845Z,741.93
2015-11-06T00:14:40.095Z,741.97
2015-11-06T00:14:53.329Z,741.81
2015-11-06T00:15:06.548Z,741.9
2015-11-06T00:15:19.770Z,741.88
2015-11-06T00:15:32.989Z,741.91
2015-11-06T00:15:46.223Z,741.82
2015-11-06T00:15:59.426Z,741.99
2015-11-06T00:16:12.660Z,741.96
2015-11-06T00:16:25.882Z,741.99
2015-11-06T00:16:39.117Z,741.87
2015-11-06T00:16:52.398Z,741.9
2015-11-06T00:17:05.632Z,741.94
2015-11-06T00:17:18.900Z,742.01
2015-11-06T00:17:32.119Z,741.92
2015-11-06T00:17:45.337Z,741.94
2015-11-06T00:17:58.556Z,741.92
2015-11-06T00:18:11.790Z,741.88
2015-11-06T00:18:25.012Z,741.92
2015-11-06T00:18:38.247Z,741.97
2015-11-06T00:18:51.481Z,741.91
2015-11-06T00:19:04.700Z,741.86
2015-11-06T00:19:17.965Z,741.76
2015-11-06T00:19:31.170Z,741.75
2015-11-06T00:19:44.374Z,741.89
2015-11-06T00:19:57.577Z,741.89
2015-11-06T00:20:10.780Z,741.97
2015-11-06T00:20:24.033Z,741.95
2015-11-06T00:20:37.283Z,741.97
2015-11-06T00:20:50.533Z,741.97
2015-11-06T00:21:03.798Z,741.98
2015-11-06T00:21:17.064Z,741.94
2015-11-06T00:21:30.286Z,741.97
2015-11-06T00:21:43.505Z,741.93
2015-11-06T00:21:56.739Z,741.93
2015-11-06T00:22:09.973Z,741.92
2015-11-06T00:22:23.211Z,741.93
2015-11-06T00:22:36.414Z,741.98
2015-11-06T00:22:49.648Z,741.95
2015-11-06T00:23:02.883Z,741.92
2015-11-06T00:23:16.148Z,741.95
2015-11-06T00:23:29.417Z,741.9
2015-11-06T00:23:42.651Z,741.9
2015-11-06T00:23:55.854Z,741.91
2015-11-06T00:24:09.089Z,741.9
2015-11-06T00:24:22.307Z,741.98
2015-11-06T00:24:35.529Z,741.85
2015-11-06T00:24:48.748Z,741.87
2015-11-06T00:25:01.967Z,741.94
2015-11-06T00:25:15.201Z,741.93
2015-11-06T00:25:28.453Z,741.84
2015-11-06T00:25:41.672Z,741.95
2015-11-06T00:25:54.891Z,741.94
2015-11-06T00:26:08.109Z,741.89
2015-11-06T00:26:21.328Z,741.91
2015-11-06T00:26:34.550Z,741.89
2015-11-06T00:26:47.800Z,741.87
2015-11-06T00:27:01.050Z,741.94
2015-11-06T00:27:14.315Z,741.94
2015-11-06T00:27:27.567Z,741.9
2015-11-06T00:27:40.786Z,741.89
2015-11-06T00:27:53.989Z,741.85
2015-11-06T00:28:07.052Z,741.9
2015-11-06T00:28:20.286Z,741.89
2015-11-06T00:28:33.508Z,741.94
2015-11-06T00:28:46.727Z,741.92
2015-11-06T00:28:59.977Z,741.88
2015-11-06T00:29:13.211Z,741.92
2015-11-06T00:29:26.480Z,741.94
2015-11-06T00:29:39.730Z,741.92
2015-11-06T00:29:52.980Z,741.87
2015-11-06T00:30:06.058Z,741.88
2015-11-06T00:30:19.261Z,741.85
2015-11-06T00:30:32.467Z,741.89
2015-11-06T00:30:45.717Z,741.79
2015-11-06T00:30:58.951Z,741.81
2015-11-06T00:31:12.233Z,741.93
2015-11-06T00:31:25.498Z,741.88
2015-11-06T00:31:38.766Z,741.93
2015-11-06T00:31:52.000Z,741.93
2015-11-06T00:32:05.219Z,741.83
2015-11-06T00:32:18.422Z,741.92
2015-11-06T00:32:31.644Z,741.92
2015-11-06T00:32:44.128Z,741.94
2015-11-06T00:32:57.331Z,741.92
2015-11-06T00:33:10.581Z,741.92
2015-11-06T00:33:23.816Z,741.94
2015-11-06T00:33:37.084Z,741.92
2015-11-06T00:33:50.334Z,741.91
2015-11-06T00:34:03.584Z,741.94
2015-11-06T00:34:16.803Z,741.88
2015-11-06T00:34:30.022Z,741.84
2015-11-06T00:34:43.228Z,741.93
2015-11-06T00:34:56.478Z,741.96
2015-11-06T00:35:09.681Z,741.94
2015-11-06T00:35:22.916Z,741.98
2015-11-06T00:35:36.152Z,741.97
2015-11-06T00:35:49.433Z,741.97
2015-11-06T00:36:02.683Z,741.97
2015-11-06T00:36:15.949Z,741.88
2015-11-06T00:36:29.168Z,742.01
2015-11-06T00:36:42.421Z,741.97
2015-11-06T00:36:55.655Z,742.01
2015-11-06T00:37:08.858Z,741.87
2015-11-06T00:37:22.108Z,742.01
2015-11-06T00:37:35.330Z,741.83
2015-11-06T00:37:48.564Z,741.94
2015-11-06T00:38:01.783Z,741.97
2015-11-06T00:38:15.033Z,742.01
2015-11-06T00:38:28.267Z,741.96
2015-11-06T00:38:41.519Z,742.01
2015-11-06T00:38:54.801Z,741.93
2015-11-06T00:39:08.019Z,741.92
2015-11-06T00:39:21.222Z,741.97
2015-11-06T00:39:34.457Z,742.01
2015-11-06T00:39:47.679Z,741.97
2015-11-06T00:40:00.897Z,742.02
2015-11-06T00:40:14.116Z,742.04
2015-11-06T00:40:27.350Z,741.96
2015-11-06T00:40:40.588Z,742
2015-11-06T00:40:53.853Z,742
2015-11-06T00:41:07.103Z,742
2015-11-06T00:41:20.338Z,742.01
2015-11-06T00:41:33.541Z,741.97
2015-11-06T00:41:46.777Z,742.02
2015-11-06T00:41:59.980Z,742.03
2015-11-06T00:42:13.215Z,741.99
2015-11-06T00:42:26.434Z,741.97
2015-11-06T00:42:39.655Z,741.91
2015-11-06T00:42:52.874Z,741.99
2015-11-06T00:43:06.124Z,742
2015-11-06T00:43:19.374Z,741.95
2015-11-06T00:43:32.640Z,741.96
2015-11-06T00:43:45.908Z,741.86
2015-11-06T00:43:59.143Z,741.94
2015-11-06T00:44:12.346Z,741.98
2015-11-06T00:44:25.565Z,742
2015-11-06T00:44:38.771Z,741.99
2015-11-06T00:44:52.021Z,742.02
2015-11-06T00:45:05.271Z,741.93
2015-11-06T00:45:18.489Z,741.98
2015-11-06T00:45:31.739Z,742.03
2015-11-06T00:45:44.976Z,742.06
2015-11-06T00:45:58.226Z,742.02
2015-11-06T00:46:11.476Z,742
2015-11-06T00:46:24.741Z,742.02
2015-11-06T00:46:37.945Z,742.01
2015-11-06T00:46:51.182Z,741.99
2015-11-06T00:47:04.401Z,741.94
2015-11-06T00:47:17.604Z,742.05
2015-11-06T00:47:30.823Z,741.98
2015-11-06T00:47:44.060Z,741.96
2015-11-06T00:47:57.326Z,741.93
2015-11-06T00:48:10.591Z,741.98
2015-11-06T00:48:23.841Z,742.03
2015-11-06T00:48:37.091Z,742.06
2015-11-06T00:48:50.313Z,742.06
2015-11-06T00:49:03.516Z,742.03
2015-11-06T00:49:16.735Z,742.03
2015-11-06T00:49:29.954Z,741.91
2015-11-06T00:49:43.174Z,742
2015-11-06T00:49:56.393Z,742.01
2015-11-06T00:50:09.627Z,742.05
2015-11-06T00:50:22.877Z,742.01
2015-11-06T00:50:36.143Z,742.05
2015-11-06T00:50:49.380Z,742
2015-11-06T00:51:02.584Z,741.94
2015-11-06T00:51:15.646Z,742.04
2015-11-06T00:51:28.865Z,742.11
2015-11-06T00:51:42.084Z,741.91
2015-11-06T00:51:55.290Z,742.02
2015-11-06T00:52:08.508Z,741.96
2015-11-06T00:52:21.743Z,742.05
2015-11-06T00:52:34.993Z,742.05
2015-11-06T00:52:48.246Z,742.03
2015-11-06T00:53:01.496Z,742.05
2015-11-06T00:53:14.715Z,742.06
2015-11-06T00:53:27.918Z,741.84
2015-11-06T00:53:41.136Z,742.01
2015-11-06T00:53:54.357Z,742.01
2015-11-06T00:54:07.623Z,741.98
2015-11-06T00:54:20.857Z,741.98
2015-11-06T00:54:34.107Z,741.87
2015-11-06T00:54:47.345Z,742.02
2015-11-06T00:55:00.563Z,742.06
2015-11-06T00:55:13.766Z,741.99
2015-11-06T00:55:26.985Z,742
2015-11-06T00:55:40.220Z,742
2015-11-06T00:55:53.441Z,742.02
2015-11-06T00:56:06.691Z,741.92
2015-11-06T00:56:19.926Z,742.07
2015-11-06T00:56:33.129Z,742.03
2015-11-06T00:56:46.348Z,742.01
2015-11-06T00:56:59.568Z,742.05
2015-11-06T00:57:12.803Z,742
2015-11-06T00:57:26.006Z,742.04
2015-11-06T00:57:39.236Z,742.01
2015-11-06T00:57:52.489Z,742.12
2015-11-06T00:58:05.583Z,741.98
2015-11-06T00:58:18.802Z,742.03
2015-11-06T00:58:32.052Z,742
2015-11-06T00:58:45.302Z,741.99
2015-11-06T00:58:58.524Z,741.92
2015-11-06T00:59:11.727Z,742.08
2015-11-06T00:59:24.945Z,742.04
2015-11-06T00:59:38.180Z,742.03
2015-11-06T00:59:51.401Z,741.98
2015-11-06T01:00:04.635Z,742.02
2015-11-06T01:00:17.869Z,742.02
2015-11-06T01:00:31.135Z,742.06
2015-11-06T01:00:44.385Z,742.04
2015-11-06T01:00:57.639Z,742.05
2015-11-06T01:01:10.842Z,742
2015-11-06T01:01:24.045Z,742.13
2015-11-06T01:01:37.280Z,742.04
2015-11-06T01:01:50.483Z,742.05
2015-11-06T01:02:03.703Z,742.04
2015-11-06T01:02:16.938Z,742.02
2015-11-06T01:02:30.172Z,741.98
2015-11-06T01:02:43.438Z,742.08
2015-11-06T01:02:56.706Z,742.08
2015-11-06T01:03:09.956Z,742.1
2015-11-06T01:03:23.175Z,742.05
2015-11-06T01:03:36.394Z,742.02
2015-11-06T01:03:49.613Z,741.97
2015-11-06T01:04:02.678Z,742.01
2015-11-06T01:04:15.897Z,741.99
2015-11-06T01:04:29.131Z,742.04
2015-11-06T01:04:42.350Z,742.06
2015-11-06T01:04:55.602Z,742.05
2015-11-06T01:05:08.852Z,742
2015-11-06T01:05:22.071Z,742.09
2015-11-06T01:05:35.290Z,742.04
2015-11-06T01:05:48.508Z,742.07
2015-11-06T01:06:01.730Z,742.03
2015-11-06T01:06:14.949Z,741.96
2015-11-06T01:06:28.168Z,741.99
2015-11-06T01:06:41.402Z,742.08
2015-11-06T01:06:54.621Z,742.01
2015-11-06T01:07:07.874Z,741.9
2015-11-06T01:07:21.108Z,742.01
2015-11-06T01:07:34.342Z,742.01
2015-11-06T01:07:47.577Z,742.05
2015-11-06T01:08:00.813Z,742.08
2015-11-06T01:08:14.048Z,742.03
2015-11-06T01:08:27.266Z,742.07
2015-11-06T01:08:40.516Z,742.05
2015-11-06T01:08:53.766Z,741.99
2015-11-06T01:09:07.004Z,742.01
2015-11-06T01:09:20.222Z,742.1
2015-11-06T01:09:33.441Z,742.13
2015-11-06T01:09:46.676Z,742.03
2015-11-06T01:09:59.913Z,741.96
2015-11-06T01:10:13.163Z,742.11
2015-11-06T01:10:26.413Z,742.09
2015-11-06T01:10:39.632Z,742
2015-11-06T01:10:52.835Z,742.1
2015-11-06T01:11:06.057Z,742.07
2015-11-06T01:11:19.275Z,742.11
2015-11-06T01:11:32.510Z,742.1
2015-11-06T01:11:45.728Z,741.99
2015-11-06T01:11:58.980Z,742
2015-11-06T01:12:12.230Z,742
2015-11-06T01:12:25.434Z,742.12
2015-11-06T01:12:38.668Z,742.09
2015-11-06T01:12:51.887Z,742.09
2015-11-06T01:13:05.123Z,742.04
2015-11-06T01:13:18.342Z,742.05
2015-11-06T01:13:31.561Z,742.08
2015-11-06T01:13:44.795Z,742.05
2015-11-06T01:13:58.076Z,742.09
2015-11-06T01:14:11.345Z,742.13
2015-11-06T01:14:24.564Z,742.21
2015-11-06T01:14:37.782Z,742.06
2015-11-06T01:14:51.001Z,742.11
2015-11-06T01:15:04.223Z,742.08
2015-11-06T01:15:17.442Z,742.17
2015-11-06T01:15:30.660Z,742.03
2015-11-06T01:15:43.879Z,742
2015-11-06T01:15:57.129Z,742.03
2015-11-06T01:16:10.382Z,742.1
2015-11-06T01:16:23.632Z,742.15
2015-11-06T01:16:36.882Z,742.05
2015-11-06T01:16:50.101Z,742.06
2015-11-06T01:17:03.354Z,742.14
2015-11-06T01:17:16.573Z,742.08
2015-11-06T01:17:29.791Z,742.06
2015-11-06T01:17:42.994Z,742.03
2015-11-06T01:17:56.229Z,742.14
2015-11-06T01:18:09.496Z,742.07
2015-11-06T01:18:22.746Z,742.18
2015-11-06T01:18:36.012Z,742.11
2015-11-06T01:18:49.262Z,742.17
2015-11-06T01:19:02.499Z,742.06
2015-11-06T01:19:15.718Z,742.08
2015-11-06T01:19:28.921Z,742.14
2015-11-06T01:19:42.140Z,742.07
2015-11-06T01:19:55.374Z,742.13
2015-11-06T01:20:08.596Z,742.16
2015-11-06T01:20:21.815Z,742.07
2015-11-06T01:20:35.081Z,742.1
2015-11-06T01:20:48.331Z,742.11
2015-11-06T01:21:01.598Z,742.16
2015-11-06T01:21:14.692Z,742.18
2015-11-06T01:21:27.926Z,742.18
2015-11-06T01:21:41.161Z,742.2
2015-11-06T01:21:54.364Z,742.12
2015-11-06T01:22:07.587Z,742.2
2015-11-06T01:22:20.805Z,742.09
2015-11-06T01:22:34.024Z,742.19
2015-11-06T01:22:54.274Z,742.15
2015-11-06T01:23:07.542Z,742.21
2015-11-06T01:23:20.792Z,742.19
2015-11-06T01:23:34.057Z,742.09
2015-11-06T01:23:47.276Z,742.2
2015-11-06T01:24:00.479Z,742.08
2015-11-06T01:24:13.717Z,742.2
2015-11-06T01:24:26.920Z,742.14
2015-11-06T01:24:40.138Z,742.18
2015-11-06T01:24:53.357Z,742.17
2015-11-06T01:25:06.595Z,742.2
2015-11-06T01:25:19.813Z,742.25
2015-11-06T01:25:33.063Z,742.3
2015-11-06T01:25:46.313Z,742.22
2015-11-06T01:25:59.532Z,742.23
2015-11-06T01:26:12.784Z,742.17
2015-11-06T01:26:26.018Z,742.27
2015-11-06T01:26:39.253Z,742.2
2015-11-06T01:26:52.472Z,742.16
2015-11-06T01:27:05.692Z,742.25
2015-11-06T01:27:18.927Z,742.21
2015-11-06T01:27:32.177Z,742.27
2015-11-06T01:27:45.427Z,742.24
2015-11-06T01:27:58.661Z,742.21
2015-11-06T01:28:11.884Z,742.21
2015-11-06T01:28:25.087Z,742.23
2015-11-06T01:28:38.290Z,742.2
2015-11-06T01:28:51.493Z,742.15
2015-11-06T01:29:04.712Z,742.22
2015-11-06T01:29:17.918Z,742.29
2015-11-06T01:29:31.152Z,742.22
2015-11-06T01:29:44.402Z,742.18
2015-11-06T01:29:57.652Z,742.24
2015-11-06T01:30:10.872Z,742.22
2015-11-06T01:30:24.075Z,742.3
2015-11-06T01:30:37.294Z,742.21
2015-11-06T01:30:50.497Z,742.22
2015-11-06T01:31:03.732Z,742.21
2015-11-06T01:31:16.939Z,742.19
2015-11-06T01:31:30.173Z,742.24
2015-11-06T01:31:43.407Z,742.18
2015-11-06T01:31:56.657Z,742.25
2015-11-06T01:32:09.909Z,742.2
2015-11-06T01:32:23.175Z,742.16
2015-11-06T01:32:36.378Z,742.14
2015-11-06T01:32:49.613Z,742.14
2015-11-06T01:33:02.831Z,742.16
2015-11-06T01:33:16.038Z,742.09
2015-11-06T01:33:29.273Z,742.07
2015-11-06T01:33:42.492Z,742.12
2015-11-06T01:33:55.742Z,742.21
2015-11-06T01:34:08.976Z,742.21
2015-11-06T01:34:22.228Z,742.24
2015-11-06T01:34:35.494Z,742.26
2015-11-06T01:34:48.775Z,742.09
2015-11-06T01:35:01.978Z,742.08
2015-11-06T01:35:15.184Z,742.11
2015-11-06T01:35:28.465Z,742.21
2015-11-06T01:35:41.684Z,742.12
2015-11-06T01:35:54.887Z,742.04
2015-11-06T01:36:08.122Z,742.04
2015-11-06T01:36:21.342Z,742.05
2015-11-06T01:36:34.577Z,742.11
2015-11-06T01:36:47.842Z,742.1
2015-11-06T01:37:01.092Z,742.13
2015-11-06T01:37:14.205Z,742.08
2015-11-06T01:37:27.423Z,742.07
2015-11-06T01:37:40.642Z,742.14
2015-11-06T01:37:53.861Z,742.12
2015-11-06T01:38:07.064Z,741.99
2015-11-06T01:38:20.301Z,742.12
2015-11-06T01:38:33.505Z,742.06
2015-11-06T01:38:46.739Z,742.06
2015-11-06T01:38:59.973Z,742.2
2015-11-06T01:39:13.223Z,742.28
2015-11-06T01:39:26.460Z,742.23
2015-11-06T01:39:39.694Z,742.2
2015-11-06T01:39:52.897Z,742.13
2015-11-06T01:40:06.100Z,742.11
2015-11-06T01:40:19.338Z,742.16
2015-11-06T01:40:32.572Z,742.21
2015-11-06T01:40:45.822Z,742.08
2015-11-06T01:40:59.072Z,742.12
2015-11-06T01:41:12.322Z,742.08
2015-11-06T01:41:25.559Z,742.11
2015-11-06T01:41:38.794Z,742.14
2015-11-06T01:41:52.013Z,742.04
2015-11-06T01:42:05.231Z,741.97
2015-11-06T01:42:18.437Z,742.17
2015-11-06T01:42:31.656Z,742.17
2015-11-06T01:42:44.906Z,742.04
2015-11-06T01:42:58.141Z,742.14
2015-11-06T01:43:11.391Z,742.14
2015-11-06T01:43:24.658Z,742.14
2015-11-06T01:43:37.908Z,742.06
2015-11-06T01:43:51.189Z,742.14
2015-11-06T01:44:04.408Z,742.13
2015-11-06T01:44:17.627Z,742.2
2015-11-06T01:44:30.692Z,742.12
2015-11-06T01:44:43.911Z,742.21
2015-11-06T01:44:57.130Z,742.13
2015-11-06T01:45:10.349Z,742.07
2015-11-06T01:45:23.601Z,742.12
2015-11-06T01:45:36.835Z,741.99
2015-11-06T01:45:50.116Z,741.97
2015-11-06T01:46:03.382Z,742.01
2015-11-06T01:46:16.632Z,741.91
2015-11-06T01:46:29.854Z,742.16
2015-11-06T01:46:43.088Z,742.18
2015-11-06T01:46:56.291Z,742.22
2015-11-06T01:47:09.541Z,742.16
2015-11-06T01:47:22.747Z,742.16
2015-11-06T01:47:35.982Z,742.18
2015-11-06T01:47:49.216Z,741.99
2015-11-06T01:48:02.466Z,742.04
2015-11-06T01:48:15.732Z,742
2015-11-06T01:48:29.016Z,742.08
2015-11-06T01:48:42.219Z,741.93
2015-11-06T01:48:55.438Z,742.06
2015-11-06T01:49:08.672Z,742.1
2015-11-06T01:49:21.891Z,742.16
2015-11-06T01:49:35.097Z,742.11
2015-11-06T01:49:48.316Z,742.18
2015-11-06T01:50:01.535Z,742.13
2015-11-06T01:50:14.831Z,742.13
2015-11-06T01:50:28.084Z,742.11
2015-11-06T01:50:41.350Z,742.11
2015-11-06T01:50:54.600Z,742.1
2015-11-06T01:51:07.803Z,742.08
2015-11-06T01:51:21.022Z,742.11
2015-11-06T01:51:34.243Z,742.22
2015-11-06T01:51:47.461Z,742.14
2015-11-06T01:52:00.665Z,742.16
2015-11-06T01:52:13.899Z,742.18
2015-11-06T01:52:27.136Z,742.15
2015-11-06T01:52:40.371Z,742.13
2015-11-06T01:52:53.621Z,742.18
2015-11-06T01:53:06.902Z,742.17
2015-11-06T01:53:20.136Z,742.17
2015-11-06T01:53:33.357Z,742.13
2015-11-06T01:53:46.591Z,742.13
2015-11-06T01:53:59.826Z,742.13
2015-11-06T01:54:13.060Z,742.08
2015-11-06T01:54:26.310Z,742.14
2015-11-06T01:54:39.563Z,742.04
2015-11-06T01:54:52.829Z,742.14
2015-11-06T01:55:06.079Z,742.11
2015-11-06T01:55:19.313Z,742.1
2015-11-06T01:55:32.535Z,742.11
2015-11-06T01:55:45.597Z,742.13
2015-11-06T01:55:58.816Z,742.15
2015-11-06T01:56:12.035Z,742.16
2015-11-06T01:56:25.238Z,742.14
2015-11-06T01:56:38.475Z,742.1
2015-11-06T01:56:51.710Z,742.21
2015-11-06T01:57:04.960Z,742.14
2015-11-06T01:57:18.210Z,742.18
2015-11-06T01:57:31.446Z,742.18
2015-11-06T01:57:44.665Z,742.15
2015-11-06T01:57:57.149Z,742.13
2015-11-06T01:58:10.368Z,742.12
2015-11-06T01:58:23.602Z,742.18
2015-11-06T01:58:36.824Z,742.2
2015-11-06T01:58:50.090Z,742.16
2015-11-06T01:59:03.324Z,742.05
2015-11-06T01:59:16.574Z,742.12
2015-11-06T01:59:29.840Z,742.11
2015-11-06T01:59:43.046Z,742.2
2015-11-06T01:59:56.280Z,742.09
2015-11-06T02:00:09.499Z,742.19
2015-11-06T02:00:22.718Z,742.08
2015-11-06T02:00:35.955Z,742.22
2015-11-06T02:00:49.205Z,742.16
2015-11-06T02:01:02.315Z,742.24
2015-11-06T02:01:15.549Z,742.25
2015-11-06T02:01:28.768Z,742.18
2015-11-06T02:01:42.004Z,742.03
2015-11-06T02:01:55.223Z,742.05
2015-11-06T02:02:08.426Z,742.18
2015-11-06T02:02:21.629Z,742.14
2015-11-06T02:02:34.695Z,742.17
2015-11-06T02:02:47.788Z,742.13
2015-11-06T02:03:01.038Z,742.21
2015-11-06T02:03:14.288Z,742.19
2015-11-06T02:03:27.538Z,742.15
2015-11-06T02:03:40.760Z,742.13
2015-11-06T02:03:53.979Z,742.19
2015-11-06T02:04:07.198Z,742.23
2015-11-06T02:04:20.401Z,742.12
2015-11-06T02:04:33.635Z,742.16
2015-11-06T02:04:46.872Z,742.18
2015-11-06T02:05:00.122Z,742.06
2015-11-06T02:05:13.372Z,742.07
2015-11-06T02:05:26.607Z,742.12
2015-11-06T02:05:39.829Z,742.05
2015-11-06T02:05:53.063Z,742.13
2015-11-06T02:06:06.282Z,742.12
2015-11-06T02:06:19.516Z,742.17
2015-11-06T02:06:32.735Z,742.11
2015-11-06T02:06:45.971Z,742.2
2015-11-06T02:06:59.190Z,742.24
2015-11-06T02:07:12.424Z,742.2
2015-11-06T02:07:25.690Z,742.22
2015-11-06T02:07:38.958Z,742.18
2015-11-06T02:07:52.161Z,742.09
2015-11-06T02:08:05.379Z,742.14
2015-11-06T02:08:18.598Z,742.11
2015-11-06T02:08:31.801Z,742.16
2015-11-06T02:08:45.024Z,742.12
2015-11-06T02:08:58.243Z,742.12
2015-11-06T02:09:11.477Z,742.17
2015-11-06T02:09:24.712Z,742.09
2015-11-06T02:09:37.977Z,742.07
2015-11-06T02:09:51.245Z,742.15
2015-11-06T02:10:04.526Z,742.06
2015-11-06T02:10:17.745Z,742.2
2015-11-06T02:10:30.979Z,742.14
2015-11-06T02:10:44.201Z,742.15
2015-11-06T02:10:57.404Z,742.16
2015-11-06T02:11:10.623Z,742.16
2015-11-06T02:11:23.842Z,742.07
2015-11-06T02:11:37.076Z,742.17
2015-11-06T02:11:50.329Z,742.13
2015-11-06T02:12:03.610Z,742.18
2015-11-06T02:12:16.860Z,742.15
2015-11-06T02:12:30.110Z,742.13
2015-11-06T02:12:43.332Z,742.04
2015-11-06T02:12:56.551Z,742.08
2015-11-06T02:13:09.769Z,742.15
2015-11-06T02:13:22.988Z,742.15
2015-11-06T02:13:36.191Z,742.13
2015-11-06T02:13:49.412Z,742.16
2015-11-06T02:14:02.646Z,742.03
2015-11-06T02:14:15.881Z,742.11
2015-11-06T02:14:29.131Z,742.21
2015-11-06T02:14:42.396Z,742.24
2015-11-06T02:14:55.603Z,742.22
2015-11-06T02:15:08.837Z,742.09
2015-11-06T02:15:22.118Z,742.09
2015-11-06T02:15:35.353Z,742.05
2015-11-06T02:15:48.589Z,742.09
2015-11-06T02:16:01.839Z,742.04
2015-11-06T02:16:15.105Z,742.1
2015-11-06T02:16:28.370Z,742.12
2015-11-06T02:16:41.589Z,742.09
2015-11-06T02:16:54.811Z,742.1
2015-11-06T02:17:08.014Z,741.97
2015-11-06T02:17:21.233Z,742.14
2015-11-06T02:17:34.467Z,742.09
2015-11-06T02:17:47.673Z,742.19
2015-11-06T02:18:00.907Z,742.13
2015-11-06T02:18:14.142Z,742.07
2015-11-06T02:18:27.392Z,742.05
2015-11-06T02:18:40.657Z,742.17
2015-11-06T02:18:53.879Z,742.18
2015-11-06T02:19:07.082Z,742.04
2015-11-06T02:19:20.301Z,742.15
2015-11-06T02:19:33.520Z,741.96
2015-11-06T02:19:46.754Z,742.1
2015-11-06T02:20:00.022Z,742.14
2015-11-06T02:20:13.272Z,742.14
2015-11-06T02:20:26.569Z,742.14
2015-11-06T02:20:39.803Z,742.13
2015-11-06T02:20:53.025Z,742.05
2015-11-06T02:21:06.259Z,742.19
2015-11-06T02:21:19.478Z,742.18
2015-11-06T02:21:32.697Z,742.23
2015-11-06T02:21:45.915Z,742.12
2015-11-06T02:21:59.137Z,742.06
2015-11-06T02:22:12.387Z,742.13
2015-11-06T02:22:25.653Z,742.09
2015-11-06T02:22:38.934Z,742.12
2015-11-06T02:22:52.187Z,742.15
2015-11-06T02:23:05.406Z,742.05
2015-11-06T02:23:18.625Z,742.03
2015-11-06T02:23:31.828Z,742.12
2015-11-06T02:23:45.062Z,741.98
2015-11-06T02:23:58.268Z,742.03
2015-11-06T02:24:11.503Z,741.86
2015-11-06T02:24:24.737Z,742.26
2015-11-06T02:24:38.003Z,741.83
2015-11-06T02:24:51.253Z,742.1
2015-11-06T02:25:04.520Z,742.13
2015-11-06T02:25:17.755Z,741.8
2015-11-06T02:25:30.973Z,742.06
2015-11-06T02:25:44.192Z,742.07
2015-11-06T02:25:57.398Z,742.06
2015-11-06T02:26:10.617Z,742.1
2015-11-06T02:26:23.836Z,742.03
2015-11-06T02:26:37.070Z,741.95
2015-11-06T02:26:50.289Z,742.1
2015-11-06T02:27:03.556Z,742.17
2015-11-06T02:27:16.791Z,742.17
2015-11-06T02:27:30.010Z,742.03
2015-11-06T02:27:43.228Z,742.14
2015-11-06T02:27:56.450Z,741.99
2015-11-06T02:28:09.669Z,742.12
2015-11-06T02:28:22.888Z,742.14
2015-11-06T02:28:36.122Z,742.07
2015-11-06T02:28:49.341Z,742.05
2015-11-06T02:29:02.594Z,742.07
2015-11-06T02:29:15.844Z,742.1
2015-11-06T02:29:29.062Z,742.17
2015-11-06T02:29:42.266Z,742.13
2015-11-06T02:29:55.503Z,742.25
2015-11-06T02:30:08.722Z,742.22
2015-11-06T02:30:21.956Z,742.22
2015-11-06T02:30:35.175Z,742.05
2015-11-06T02:30:48.440Z,742.24
2015-11-06T02:31:01.693Z,742.08
2015-11-06T02:31:14.943Z,742.04
2015-11-06T02:31:28.162Z,742.02
2015-11-06T02:31:41.365Z,742.25
2015-11-06T02:31:54.600Z,742.16
2015-11-06T02:32:07.820Z,742
2015-11-06T02:32:21.008Z,742.08
2015-11-06T02:32:34.227Z,742.25
2015-11-06T02:32:47.461Z,742.23
2015-11-06T02:33:00.682Z,742.18
2015-11-06T02:33:13.947Z,742.19
2015-11-06T02:33:27.182Z,742.19
2015-11-06T02:33:40.260Z,742.24
2015-11-06T02:33:53.463Z,742.1
2015-11-06T02:34:06.686Z,742.13
2015-11-06T02:34:19.920Z,742.06
2015-11-06T02:34:33.155Z,742.15
2015-11-06T02:34:46.420Z,742.16
2015-11-06T02:34:59.688Z,742.16
2015-11-06T02:35:12.969Z,741.91
2015-11-06T02:35:26.203Z,742.46
2015-11-06T02:35:39.422Z,742.19
2015-11-06T02:35:52.625Z,742.35
2015-11-06T02:36:05.847Z,742.29
2015-11-06T02:36:19.066Z,742.33
2015-11-06T02:36:32.285Z,742.34
2015-11-06T02:36:45.519Z,742.23
2015-11-06T02:36:58.600Z,742.19
2015-11-06T02:37:11.834Z,742.16
2015-11-06T02:37:25.084Z,742.17
2015-11-06T02:37:38.319Z,742.16
2015-11-06T02:37:51.522Z,742.21
2015-11-06T02:38:04.727Z,742.11
2015-11-06T02:38:17.930Z,742.18
2015-11-06T02:38:31.133Z,742.12
2015-11-06T02:38:44.336Z,742.04
2015-11-06T02:38:57.540Z,741.96
2015-11-06T02:39:10.777Z,742.17
2015-11-06T02:39:24.027Z,742.22
2015-11-06T02:39:37.277Z,742.07
2015-11-06T02:39:50.558Z,742.19
2015-11-06T02:40:03.811Z,742.05
2015-11-06T02:40:17.046Z,742.08
2015-11-06T02:40:30.264Z,742.38
2015-11-06T02:40:43.483Z,742.1
2015-11-06T02:40:56.702Z,742.13
2015-11-06T02:41:09.923Z,742.13
2015-11-06T02:41:23.141Z,742.02
2015-11-06T02:41:36.376Z,742.07
2015-11-06T02:41:49.610Z,742.27
2015-11-06T02:42:02.879Z,742.27
2015-11-06T02:42:16.129Z,742.39
2015-11-06T02:42:29.347Z,742.15
2015-11-06T02:42:42.566Z,742.05
2015-11-06T02:42:55.769Z,742.02
2015-11-06T02:43:08.991Z,742.03
2015-11-06T02:43:22.194Z,742.13
2015-11-06T02:43:35.429Z,742.12
2015-11-06T02:43:48.663Z,742.29
2015-11-06T02:44:01.944Z,742.37
2015-11-06T02:44:15.212Z,742.19
2015-11-06T02:44:28.462Z,742.3
2015-11-06T02:44:41.712Z,741.94
2015-11-06T02:44:54.915Z,742.08
2015-11-06T02:45:08.152Z,742.06
2015-11-06T02:45:21.387Z,742.17
2015-11-06T02:45:34.605Z,742.17
2015-11-06T02:45:47.824Z,742.08
2015-11-06T02:46:01.043Z,742.03